Time;durP1;ratioP1;P1;durP2;ratioP2;P2;SDS_P1;SDS_P2;PMS_P1;PMS_P2;Temp;Humidity;BMP_temperature;BMP_pressure;BME280_temperature;BME280_humidity;BME280_pressure;Samples;Min_cycle;Max_cycle;Signal;HPM_P1;HPM_P2
2023/09/20 00:02:13;;;;;;;0.50;0.50;;;;;;;15.16;67.88;97303.25;5064468;28;20052;-66
2023/09/20 00:04:41;;;;;;;0.60;0.60;;;;;;;15.15;67.75;97302.44;5058096;28;20033;-65
2023/09/20 00:07:11;;;;;;;0.57;0.57;;;;;;;15.18;68.10;97301.13;5059652;28;20029;-66
2023/09/20 00:09:40;;;;;;;0.45;0.45;;;;;;;15.14;68.07;97298.09;5055340;28;20048;-66
2023/09/20 00:12:08;;;;;;;0.43;0.43;;;;;;;15.21;68.00;97295.28;5058303;28;20040;-66
2023/09/20 00:14:36;;;;;;;0.22;0.22;;;;;;;15.18;68.02;97293.06;5056713;28;20045;-66
2023/09/20 00:17:04;;;;;;;0.68;0.68;;;;;;;15.12;68.12;97294.00;5068901;28;20365;-65
2023/09/20 00:19:32;;;;;;;0.52;0.52;;;;;;;15.07;68.29;97287.44;5058138;28;20128;-65
2023/09/20 00:22:00;;;;;;;0.50;0.50;;;;;;;15.09;68.48;97287.19;5062601;28;20037;-66
2023/09/20 00:24:29;;;;;;;0.52;0.52;;;;;;;15.08;68.39;97290.94;5063111;28;20041;-65
2023/09/20 00:26:57;;;;;;;0.40;0.40;;;;;;;15.06;68.46;97291.16;5055538;28;20033;-65
2023/09/20 00:29:26;;;;;;;0.45;0.45;;;;;;;14.96;68.79;97288.22;5065116;28;20063;-64
2023/09/20 00:31:55;;;;;;;0.60;0.60;;;;;;;15.05;68.61;97297.59;5071057;28;20102;-64
2023/09/20 00:34:23;;;;;;;0.30;0.30;;;;;;;15.02;68.65;97289.19;5066280;28;20049;-65
2023/09/20 00:36:51;;;;;;;0.55;0.55;;;;;;;14.99;68.96;97300.38;5080363;28;20044;-65
2023/09/20 00:39:19;;;;;;;0.60;0.60;;;;;;;14.85;69.45;97282.81;5061729;28;20055;-65
2023/09/20 00:41:49;;;;;;;0.50;0.50;;;;;;;14.93;69.10;97286.00;5072229;28;20051;-65
2023/09/20 00:44:17;;;;;;;0.35;0.35;;;;;;;14.81;69.45;97277.09;5075638;28;20098;-65
2023/09/20 00:46:46;;;;;;;0.45;0.45;;;;;;;14.91;69.38;97276.53;5077003;28;20094;-65
2023/09/20 00:49:14;;;;;;;0.63;0.63;;;;;;;14.97;69.12;97276.41;5083892;28;20118;-65
2023/09/20 00:51:45;;;;;;;0.20;0.20;;;;;;;14.97;69.10;97271.03;5076850;28;20190;-66
2023/09/20 00:54:13;;;;;;;0.40;0.40;;;;;;;15.03;68.85;97267.44;5077835;28;20048;-65
2023/09/20 00:56:40;;;;;;;0.50;0.50;;;;;;;15.05;68.74;97259.16;5063152;28;20127;-65
2023/09/20 00:59:10;;;;;;;0.40;0.40;;;;;;;15.00;68.93;97267.91;5071671;28;20055;-65
2023/09/20 01:01:39;;;;;;;0.52;0.52;;;;;;;15.00;69.04;97269.78;5075868;28;20047;-65
2023/09/20 01:04:07;;;;;;;0.57;0.57;;;;;;;14.90;69.10;97264.13;5074027;28;20052;-65
2023/09/20 01:06:37;;;;;;;0.50;0.50;;;;;;;14.76;69.75;97263.50;5062858;28;20495;-65
2023/09/20 01:09:05;;;;;;;0.60;0.60;;;;;;;14.74;69.86;97262.13;5078292;28;20155;-67
2023/09/20 01:11:33;;;;;;;0.45;0.45;;;;;;;14.63;70.33;97263.72;5096023;28;20058;-66
2023/09/20 01:14:01;;;;;;;0.45;0.45;;;;;;;14.58;70.74;97261.72;5071214;28;20037;-65
2023/09/20 01:16:33;;;;;;;0.50;0.50;;;;;;;14.54;70.82;97263.19;5074487;28;20116;-66
2023/09/20 01:19:05;;;;;;;0.52;0.52;;;;;;;14.63;70.55;97266.41;5074528;28;20036;-65
2023/09/20 01:21:40;;;;;;;0.47;0.47;;;;;;;14.76;70.11;97260.81;5078163;28;20048;-66
2023/09/20 01:24:09;;;;;;;0.40;0.40;;;;;;;14.86;69.80;97266.47;5058067;28;20076;-66
2023/09/20 01:26:39;;;;;;;0.30;0.30;;;;;;;14.92;69.59;97260.19;5063544;28;20094;-65
2023/09/20 01:29:07;;;;;;;0.60;0.60;;;;;;;14.91;69.42;97266.59;5060598;28;20036;-65
2023/09/20 01:31:37;;;;;;;0.50;0.50;;;;;;;14.89;69.64;97259.81;5061680;28;20045;-66
2023/09/20 01:34:05;;;;;;;0.50;0.50;;;;;;;14.93;69.58;97269.06;5063093;28;20048;-65
2023/09/20 01:36:32;;;;;;;0.50;0.50;;;;;;;15.04;69.27;97269.09;5080314;28;20061;-65
2023/09/20 01:39:08;;;;;;;0.43;0.43;;;;;;;14.71;70.22;97267.94;5080510;28;20052;-65
2023/09/20 01:41:36;;;;;;;0.75;0.75;;;;;;;14.63;70.75;97269.91;5069702;28;20054;-65
2023/09/20 01:44:04;;;;;;;0.45;0.45;;;;;;;14.61;70.93;97272.00;5072296;28;20058;-65
2023/09/20 01:46:33;;;;;;;0.40;0.40;;;;;;;14.67;70.72;97271.06;5060879;28;20044;-65
2023/09/20 01:49:01;;;;;;;0.60;0.60;;;;;;;14.69;70.52;97263.63;5085565;28;20068;-66
2023/09/20 01:51:29;;;;;;;0.40;0.40;;;;;;;14.72;70.67;97267.72;5060710;28;20072;-65
2023/09/20 01:53:57;;;;;;;0.55;0.55;;;;;;;14.71;70.72;97278.69;5087299;28;20084;-65
2023/09/20 01:56:26;;;;;;;0.43;0.43;;;;;;;14.72;70.76;97280.34;5070662;28;20048;-65
2023/09/20 01:58:54;;;;;;;0.43;0.43;;;;;;;14.65;71.10;97270.47;5092990;22;20055;-69
2023/09/20 02:01:22;;;;;;;0.50;0.50;;;;;;;14.73;70.84;97276.59;5031397;28;20049;-69
2023/09/20 02:03:50;;;;;;;0.60;0.60;;;;;;;14.73;71.04;97292.72;5038748;28;20052;-69
2023/09/20 02:06:19;;;;;;;0.43;0.43;;;;;;;14.72;70.94;97286.53;5045129;28;20044;-69
2023/09/20 02:08:48;;;;;;;0.50;0.50;;;;;;;14.77;70.75;97291.19;5052288;28;20045;-69
2023/09/20 02:11:16;;;;;;;0.40;0.40;;;;;;;14.74;71.05;97299.75;5041140;28;20500;-69
2023/09/20 02:13:45;;;;;;;0.50;0.50;;;;;;;14.74;71.03;97289.81;5031271;28;20048;-68
2023/09/20 02:16:13;;;;;;;0.40;0.40;;;;;;;14.67;71.13;97284.50;5021645;28;20096;-68
2023/09/20 02:18:40;;;;;;;0.52;0.52;;;;;;;14.61;71.69;97276.56;5039079;28;20040;-70
2023/09/20 02:21:09;;;;;;;0.40;0.40;;;;;;;14.69;71.40;97284.28;5043789;28;20488;-70
2023/09/20 02:23:36;;;;;;;0.47;0.47;;;;;;;14.71;71.49;97276.00;5035489;28;20116;-71
2023/09/20 02:26:04;;;;;;;0.57;0.57;;;;;;;14.65;71.71;97272.34;5039839;28;20063;-71
2023/09/20 02:28:33;;;;;;;0.17;0.17;;;;;;;14.60;71.89;97280.28;5027129;28;20463;-71
2023/09/20 02:31:03;;;;;;;0.52;0.52;;;;;;;14.57;72.01;97281.56;5016154;28;20080;-70
2023/09/20 02:33:31;;;;;;;0.60;0.60;;;;;;;14.51;72.34;97287.03;5032682;28;20056;-70
2023/09/20 02:35:59;;;;;;;0.32;0.32;;;;;;;14.49;72.38;97283.75;5027364;28;20128;-69
2023/09/20 02:38:28;;;;;;;0.40;0.40;;;;;;;14.46;72.47;97281.50;5041455;28;20068;-70
2023/09/20 02:40:57;;;;;;;0.40;0.40;;;;;;;14.42;72.69;97288.38;5036905;28;20037;-70
2023/09/20 02:43:26;;;;;;;0.10;0.10;;;;;;;14.47;72.41;97277.78;5037257;28;20396;-71
2023/09/20 02:45:54;;;;;;;0.70;0.70;;;;;;;14.44;72.72;97283.59;5012072;28;20511;-70
2023/09/20 02:48:26;;;;;;;0.63;0.63;;;;;;;14.43;72.56;97279.28;5042515;28;20112;-70
2023/09/20 02:50:54;;;;;;;0.43;0.43;;;;;;;14.39;72.73;97275.38;5039854;28;20048;-70
2023/09/20 02:53:21;;;;;;;0.98;0.98;;;;;;;14.37;72.97;97285.50;5021229;28;20076;-69
2023/09/20 02:55:50;;;;;;;0.60;0.60;;;;;;;14.35;73.02;97280.38;5022089;28;20504;-69
2023/09/20 02:58:18;;;;;;;0.45;0.45;;;;;;;14.38;73.08;97271.03;5030771;28;20117;-70
2023/09/20 03:00:50;;;;;;;0.38;0.38;;;;;;;14.39;73.08;97284.28;5032469;28;20045;-70
2023/09/20 03:03:23;;;;;;;0.68;0.68;;;;;;;14.41;72.86;97281.38;5025669;28;20132;-70
2023/09/20 03:05:53;;;;;;;0.50;0.50;;;;;;;14.39;72.91;97273.53;5028520;28;20393;-70
2023/09/20 03:08:20;;;;;;;0.38;0.38;;;;;;;14.40;72.89;97275.19;5023694;28;20044;-70
2023/09/20 03:10:49;;;;;;;0.50;0.50;;;;;;;14.40;73.09;97285.09;5025918;28;20099;-69
2023/09/20 03:13:18;;;;;;;0.40;0.40;;;;;;;14.46;72.89;97279.63;5018411;28;20046;-69
2023/09/20 03:15:54;;;;;;;0.40;0.40;;;;;;;14.46;72.77;97276.94;5030596;28;20037;-70
2023/09/20 03:18:24;;;;;;;0.43;0.43;;;;;;;14.49;72.84;97267.63;5040268;28;20527;-69
2023/09/20 03:21:06;;;;;;;0.40;0.40;;;;;;;14.44;72.99;97265.59;5025018;28;20046;-69
2023/09/20 03:23:36;;;;;;;0.30;0.30;;;;;;;14.42;72.97;97266.91;5035348;28;20045;-70
2023/09/20 03:26:08;;;;;;;0.50;0.50;;;;;;;14.46;72.80;97262.69;5014345;28;20038;-70
2023/09/20 03:28:36;;;;;;;0.52;0.52;;;;;;;14.45;73.07;97261.06;5017301;28;20503;-70
2023/09/20 03:31:10;;;;;;;0.65;0.65;;;;;;;14.44;73.07;97262.09;5012628;28;20424;-70
2023/09/20 03:33:38;;;;;;;0.30;0.30;;;;;;;14.46;73.36;97260.00;5021605;28;20523;-70
2023/09/20 03:36:15;;;;;;;0.32;0.32;;;;;;;14.49;72.91;97264.94;5021773;28;20032;-71
2023/09/20 03:38:46;;;;;;;0.40;0.40;;;;;;;14.56;72.77;97284.47;5020225;28;20532;-70
2023/09/20 03:41:14;;;;;;;0.30;0.30;;;;;;;14.59;72.68;97284.00;5025877;28;20053;-71
2023/09/20 03:43:45;;;;;;;0.40;0.40;;;;;;;14.57;72.74;97278.88;5019653;28;20565;-71
2023/09/20 03:46:14;;;;;;;0.40;0.40;;;;;;;14.63;72.69;97293.28;5017368;28;20130;-70
2023/09/20 03:48:44;;;;;;;0.00;0.00;;;;;;;14.58;72.66;97293.13;5015805;28;20688;-71
2023/09/20 03:51:16;;;;;;;0.47;0.47;;;;;;;14.54;72.82;97291.91;5017419;28;20053;-70
2023/09/20 03:53:45;;;;;;;0.47;0.47;;;;;;;14.50;72.89;97288.06;5036701;28;20045;-71
2023/09/20 03:56:17;;;;;;;0.55;0.55;;;;;;;14.39;73.15;97276.22;5022639;28;20040;-71
2023/09/20 03:58:45;;;;;;;0.50;0.50;;;;;;;14.39;73.36;97284.28;5030551;28;20033;-71
2023/09/20 04:01:13;;;;;;;0.10;0.10;;;;;;;14.36;73.44;97284.69;5021914;28;20412;-71
2023/09/20 04:03:41;;;;;;;0.32;0.32;;;;;;;14.39;73.42;97289.66;5032907;28;20151;-71
2023/09/20 04:06:09;;;;;;;0.52;0.52;;;;;;;14.39;73.27;97296.84;5030803;28;20045;-71
2023/09/20 04:08:41;;;;;;;0.40;0.40;;;;;;;14.38;73.00;97281.78;5004389;28;20033;-71
2023/09/20 04:11:11;;;;;;;0.50;0.50;;;;;;;14.35;73.42;97288.41;5025735;28;20037;-70
2023/09/20 04:13:40;;;;;;;0.10;0.10;;;;;;;14.28;73.70;97287.69;5015284;28;20452;-70
2023/09/20 04:16:08;;;;;;;0.50;0.50;;;;;;;14.21;73.87;97279.72;5016624;28;20041;-70
2023/09/20 04:18:36;;;;;;;0.57;0.57;;;;;;;14.19;74.09;97281.00;5024835;28;20041;-71
2023/09/20 04:21:04;;;;;;;0.40;0.40;;;;;;;14.20;74.10;97279.94;5025369;28;20041;-70
2023/09/20 04:23:32;;;;;;;0.47;0.47;;;;;;;14.20;73.88;97283.47;5025862;28;20140;-70
2023/09/20 04:26:02;;;;;;;0.65;0.65;;;;;;;14.19;74.18;97283.69;5018307;28;20041;-71
2023/09/20 04:28:30;;;;;;;0.50;0.50;;;;;;;14.21;74.06;97287.78;5025974;28;20041;-71
2023/09/20 04:30:59;;;;;;;0.50;0.50;;;;;;;14.21;74.02;97292.34;5022061;28;20041;-70
2023/09/20 04:33:27;;;;;;;0.63;0.63;;;;;;;14.17;74.22;97281.22;5021860;28;20049;-71
2023/09/20 04:35:57;;;;;;;0.50;0.50;;;;;;;14.19;74.10;97275.63;5028277;28;20049;-70
2023/09/20 04:38:26;;;;;;;0.50;0.50;;;;;;;14.23;73.79;97276.78;5026188;28;20527;-70
2023/09/20 04:40:56;;;;;;;0.43;0.43;;;;;;;14.19;74.16;97281.00;5028408;28;20131;-71
2023/09/20 04:43:26;;;;;;;0.43;0.43;;;;;;;14.19;74.23;97289.06;5047807;28;20102;-71
2023/09/20 04:45:55;;;;;;;0.60;0.60;;;;;;;14.18;74.18;97290.09;5035021;28;20501;-71
2023/09/20 04:48:23;;;;;;;0.50;0.50;;;;;;;14.11;74.49;97287.50;5028915;28;20087;-71
2023/09/20 04:50:51;;;;;;;0.40;0.40;;;;;;;14.08;74.61;97282.56;5023635;28;20067;-70
2023/09/20 04:53:19;;;;;;;0.70;0.70;;;;;;;14.10;74.40;97283.16;5029626;28;20521;-70
2023/09/20 04:55:48;;;;;;;0.43;0.43;;;;;;;14.10;74.30;97275.13;5011342;28;20041;-71
2023/09/20 04:58:18;;;;;;;0.50;0.50;;;;;;;14.06;74.52;97287.34;5025701;28;20047;-70
2023/09/20 05:00:48;;;;;;;0.85;0.85;;;;;;;14.03;74.59;97285.09;5040637;28;20090;-70
2023/09/20 05:03:16;;;;;;;0.57;0.57;;;;;;;14.08;74.67;97281.75;5029281;28;20049;-70
2023/09/20 05:05:45;;;;;;;0.43;0.43;;;;;;;14.04;74.64;97281.38;5046903;28;20068;-71
2023/09/20 05:08:15;;;;;;;0.50;0.50;;;;;;;14.01;74.90;97276.47;5032397;28;20504;-71
2023/09/20 05:10:43;;;;;;;0.50;0.50;;;;;;;14.03;74.74;97278.91;5017905;28;20041;-70
2023/09/20 05:13:11;;;;;;;0.60;0.60;;;;;;;14.05;74.74;97288.38;5020242;28;20058;-71
2023/09/20 05:15:40;;;;;;;0.52;0.52;;;;;;;14.04;74.91;97292.09;5022609;28;20563;-71
2023/09/20 05:18:13;;;;;;;0.40;0.40;;;;;;;14.06;74.71;97295.38;5020454;28;20038;-71
2023/09/20 05:20:41;;;;;;;0.40;0.40;;;;;;;14.13;74.39;97290.75;5034349;28;20121;-70
2023/09/20 05:23:09;;;;;;;0.57;0.57;;;;;;;14.15;74.54;97293.22;5026323;28;20041;-70
2023/09/20 05:25:37;;;;;;;0.10;0.10;;;;;;;14.13;74.40;97287.25;5033796;28;20428;-70
2023/09/20 05:28:05;;;;;;;0.65;0.65;;;;;;;14.15;74.54;97288.66;5025611;28;20550;-70
2023/09/20 05:30:33;;;;;;;0.40;0.40;;;;;;;14.12;74.60;97281.06;5043738;28;20403;-71
2023/09/20 05:33:04;;;;;;;0.40;0.40;;;;;;;14.11;74.68;97287.50;5028411;28;20045;-70
2023/09/20 05:35:33;;;;;;;0.50;0.50;;;;;;;14.12;74.64;97291.78;5043674;28;20073;-70
2023/09/20 05:38:02;;;;;;;0.38;0.38;;;;;;;14.11;74.78;97295.53;5045096;28;20064;-70
2023/09/20 05:40:30;;;;;;;0.45;0.45;;;;;;;14.11;74.90;97284.00;5041949;28;20041;-70
2023/09/20 05:42:58;;;;;;;0.32;0.32;;;;;;;14.13;74.91;97284.56;5047474;28;20412;-70
2023/09/20 05:45:26;;;;;;;0.50;0.50;;;;;;;14.13;74.92;97282.69;5045678;28;20045;-70
2023/09/20 05:47:55;;;;;;;0.60;0.60;;;;;;;14.09;74.91;97283.38;5045940;28;20063;-70
2023/09/20 05:50:32;;;;;;;0.43;0.43;;;;;;;14.02;75.15;97283.44;5035424;28;20056;-70
2023/09/20 05:53:03;;;;;;;0.50;0.50;;;;;;;13.93;75.14;97284.78;5032261;28;20053;-69
2023/09/20 05:55:33;;;;;;;0.40;0.40;;;;;;;13.90;75.16;97275.34;5031217;28;20041;-70
2023/09/20 05:58:02;;;;;;;0.50;0.50;;;;;;;13.90;75.21;97275.34;5041116;28;20087;-70
2023/09/20 06:00:30;;;;;;;0.57;0.57;;;;;;;13.91;75.24;97276.97;5023456;28;20128;-70
2023/09/20 06:02:58;;;;;;;0.68;0.68;;;;;;;13.95;75.10;97277.34;5040466;28;20376;-70
2023/09/20 06:05:32;;;;;;;0.52;0.52;;;;;;;13.93;75.17;97279.44;5042244;28;20060;-70
2023/09/20 06:07:59;;;;;;;0.52;0.52;;;;;;;13.93;75.35;97279.44;5028879;28;20448;-70
2023/09/20 06:10:28;;;;;;;0.50;0.50;;;;;;;14.01;75.25;97294.44;5045592;28;20053;-69
2023/09/20 06:12:56;;;;;;;0.65;0.65;;;;;;;14.02;75.24;97288.00;5032081;28;20037;-70
2023/09/20 06:15:23;;;;;;;0.40;0.40;;;;;;;14.14;74.84;97295.06;5039931;28;20063;-70
2023/09/20 06:17:51;;;;;;;0.57;0.57;;;;;;;14.15;74.85;97290.53;5042366;28;20069;-70
2023/09/20 06:20:20;;;;;;;0.50;0.50;;;;;;;14.24;74.58;97286.50;5047215;28;20118;-70
2023/09/20 06:22:48;;;;;;;0.60;0.60;;;;;;;14.28;74.37;97293.06;5040322;28;20048;-70
2023/09/20 06:25:19;;;;;;;0.50;0.50;;;;;;;14.32;74.37;97297.78;5048360;28;20041;-70
2023/09/20 06:27:50;;;;;;;0.30;0.30;;;;;;;14.41;74.42;97297.50;5024388;28;20041;-70
2023/09/20 06:30:20;;;;;;;0.57;0.57;;;;;;;14.39;74.29;97300.41;5039361;28;20048;-70
2023/09/20 06:32:48;;;;;;;0.63;0.63;;;;;;;14.39;74.62;97307.59;5034587;28;20515;-69
2023/09/20 06:35:19;;;;;;;0.50;0.50;;;;;;;14.30;74.92;97307.91;5036992;28;20063;-70
2023/09/20 06:37:48;;;;;;;0.50;0.50;;;;;;;14.35;74.92;97307.22;5043263;28;20112;-69
2023/09/20 06:40:22;;;;;;;0.57;0.57;;;;;;;14.40;74.78;97311.97;5040635;28;20519;-70
2023/09/20 06:42:51;;;;;;;0.50;0.50;;;;;;;14.48;74.62;97308.94;5043301;28;20528;-69
2023/09/20 06:45:19;;;;;;;0.45;0.45;;;;;;;14.50;74.62;97306.88;5023688;28;20053;-70
2023/09/20 06:47:47;;;;;;;0.60;0.60;;;;;;;14.52;74.69;97310.16;5043120;28;20083;-69
2023/09/20 06:50:15;;;;;;;0.40;0.40;;;;;;;14.58;74.37;97317.28;5042709;28;20609;-70
2023/09/20 06:52:43;;;;;;;0.10;0.10;;;;;;;14.66;74.79;97311.59;5033011;28;20396;-69
2023/09/20 06:55:16;;;;;;;0.40;0.40;;;;;;;14.79;73.93;97318.66;5036625;28;20059;-69
2023/09/20 06:57:44;;;;;;;0.50;0.50;;;;;;;14.83;73.81;97319.84;5044374;28;20112;-72
2023/09/20 07:00:21;;;;;;;0.52;0.52;;;;;;;14.86;73.83;97322.88;5042754;28;20045;-69
2023/09/20 07:02:54;;;;;;;0.40;0.40;;;;;;;14.92;73.34;97313.09;5036686;28;20045;-72
2023/09/20 07:05:27;;;;;;;0.68;0.68;;;;;;;14.98;73.28;97320.25;5041514;28;20508;-69
2023/09/20 07:07:56;;;;;;;0.52;0.52;;;;;;;15.09;73.45;97321.31;5032464;28;20045;-69
2023/09/20 07:10:25;;;;;;;0.50;0.50;;;;;;;15.19;72.83;97321.59;5031005;28;20176;-69
2023/09/20 07:12:54;;;;;;;0.47;0.47;;;;;;;15.23;72.47;97318.22;5035701;28;20492;-69
2023/09/20 07:15:25;;;;;;;0.50;0.50;;;;;;;15.31;72.66;97320.56;5031628;28;20116;-72
2023/09/20 07:17:59;;;;;;;0.30;0.30;;;;;;;15.39;72.11;97316.72;5041811;28;20045;-69
2023/09/20 07:20:28;;;;;;;0.45;0.45;;;;;;;15.50;72.01;97315.09;5046071;28;20118;-69
2023/09/20 07:22:56;;;;;;;0.55;0.55;;;;;;;15.55;71.27;97316.06;5039442;28;20049;-69
2023/09/20 07:25:27;;;;;;;0.30;0.30;;;;;;;15.63;71.07;97312.22;5028795;28;20488;-69
2023/09/20 07:27:58;;;;;;;0.50;0.50;;;;;;;15.71;71.19;97322.63;5039398;28;20049;-69
2023/09/20 07:30:34;;;;;;;0.40;0.40;;;;;;;15.82;70.98;97326.38;5023078;28;20045;-69
2023/09/20 07:33:03;;;;;;;0.50;0.50;;;;;;;15.93;70.75;97320.16;5042602;28;20076;-69
2023/09/20 07:35:46;;;;;;;0.50;0.50;;;;;;;16.04;70.37;97311.25;5041561;28;20040;-69
2023/09/20 07:38:24;;;;;;;0.30;0.30;;;;;;;16.15;70.17;97316.63;5042874;28;20059;-70
2023/09/20 07:40:53;;;;;;;0.30;0.30;;;;;;;16.27;69.79;97313.09;5034522;28;20069;-70
2023/09/20 07:43:21;;;;;;;0.45;0.45;;;;;;;16.38;69.31;97307.69;5041845;28;20045;-70
2023/09/20 07:46:03;;;;;;;0.40;0.40;;;;;;;16.53;69.10;97318.75;5021707;28;20095;-71
2023/09/20 07:48:33;;;;;;;0.50;0.50;;;;;;;16.59;68.75;97318.88;5042449;28;20045;-71
2023/09/20 07:51:02;;;;;;;0.52;0.52;;;;;;;16.67;68.71;97322.03;5035590;28;20036;-69
2023/09/20 07:53:30;;;;;;;0.38;0.38;;;;;;;16.74;68.80;97320.00;5034437;28;20162;-70
2023/09/20 07:56:00;;;;;;;0.52;0.52;;;;;;;16.85;68.00;97311.03;5034832;28;20086;-69
2023/09/20 07:58:28;;;;;;;0.40;0.40;;;;;;;17.02;67.56;97315.66;5042605;28;20117;-70
2023/09/20 08:00:57;;;;;;;0.88;0.88;;;;;;;17.13;67.12;97318.28;5088167;22;20135;-65
2023/09/20 08:03:26;;;;;;;0.47;0.47;;;;;;;17.32;66.67;97316.19;5073918;28;20514;-66
2023/09/20 08:05:55;;;;;;;0.40;0.40;;;;;;;17.44;66.03;97306.13;5070217;28;20044;-66
2023/09/20 08:08:22;;;;;;;0.10;0.10;;;;;;;17.56;65.78;97301.47;5074288;28;20395;-67
2023/09/20 08:10:50;;;;;;;0.43;0.43;;;;;;;17.69;65.34;97305.75;5070283;28;20059;-67
2023/09/20 08:13:39;;;;;;;0.52;0.52;;;;;;;17.80;64.70;97306.72;5074075;28;20068;-67
2023/09/20 08:16:10;;;;;;;0.77;0.77;;;;;;;17.89;64.18;97303.34;5074002;28;20036;-67
2023/09/20 08:21:24;;;;;;;0.40;0.40;;;;;;;18.07;63.81;97317.63;5073919;28;20052;-67
2023/09/20 08:59:54;;;;;;;0.45;0.45;;;;;;;18.94;58.60;97291.41;5074924;28;20045;-67
2023/09/20 09:02:23;;;;;;;0.40;0.40;;;;;;;18.87;58.48;97298.94;5074332;28;20040;-67
2023/09/20 09:04:53;;;;;;;0.43;0.43;;;;;;;18.84;59.10;97290.50;5073418;28;20085;-67
2023/09/20 09:07:22;;;;;;;0.40;0.40;;;;;;;18.73;59.26;97286.88;5073874;28;20119;-67
2023/09/20 09:09:50;;;;;;;0.30;0.30;;;;;;;18.71;59.53;97286.28;5073399;28;20045;-67
2023/09/20 09:12:19;;;;;;;0.40;0.40;;;;;;;18.89;59.05;97287.84;5073250;28;20060;-67
2023/09/20 09:14:48;;;;;;;0.40;0.40;;;;;;;19.04;58.96;97285.28;5056529;28;20048;-67
2023/09/20 09:17:16;;;;;;;0.10;0.10;;;;;;;19.23;58.40;97291.13;5068464;28;20431;-67
2023/09/20 09:19:44;;;;;;;0.40;0.40;;;;;;;19.23;57.57;97280.31;5068177;28;20040;-67
2023/09/20 09:22:15;;;;;;;0.10;0.10;;;;;;;19.33;57.64;97280.41;5071825;28;20441;-67
2023/09/20 09:24:44;;;;;;;0.50;0.50;;;;;;;19.49;57.49;97274.06;5072695;28;20036;-67
2023/09/20 09:27:12;;;;;;;0.10;0.10;;;;;;;19.61;57.09;97271.19;5073039;28;20524;-67
2023/09/20 09:29:42;;;;;;;0.30;0.30;;;;;;;19.73;56.01;97280.72;5072385;28;20064;-67
2023/09/20 09:32:10;;;;;;;0.40;0.40;;;;;;;19.78;56.17;97274.53;5072696;28;20032;-67
2023/09/20 09:34:38;;;;;;;0.45;0.45;;;;;;;19.76;55.78;97260.44;5071974;28;20048;-67
2023/09/20 09:37:06;;;;;;;0.50;0.50;;;;;;;19.79;55.94;97276.19;5071956;28;20040;-67
2023/09/20 09:39:36;;;;;;;0.35;0.35;;;;;;;19.87;55.77;97266.72;5072804;28;20041;-67
2023/09/20 09:42:06;;;;;;;0.03;0.03;;;;;;;19.86;55.35;97265.09;5073194;28;20489;-67
2023/09/20 09:44:48;;;;;;;0.40;0.40;;;;;;;19.90;55.15;97258.91;5073230;28;20052;-67
2023/09/20 09:47:17;;;;;;;0.50;0.50;;;;;;;20.02;54.53;97251.41;5074931;28;20040;-67
2023/09/20 09:49:45;;;;;;;0.40;0.40;;;;;;;20.03;54.44;97250.31;5073635;28;20132;-67
2023/09/20 09:52:12;;;;;;;0.40;0.40;;;;;;;20.04;54.66;97246.50;5073684;28;20036;-67
2023/09/20 09:54:43;;;;;;;0.55;0.55;;;;;;;20.03;54.77;97247.59;5074901;28;20079;-67
2023/09/20 09:57:10;;;;;;;0.30;0.30;;;;;;;20.11;54.44;97233.56;5075383;28;20047;-67
2023/09/20 09:59:39;;;;;;;0.30;0.30;;;;;;;20.14;53.67;97235.72;5075439;28;20041;-67
2023/09/20 10:02:13;;;;;;;0.50;0.50;;;;;;;20.14;53.65;97233.00;5075249;28;20040;-67
2023/09/20 10:04:42;;;;;;;0.38;0.38;;;;;;;20.22;53.71;97231.69;5074674;28;20041;-67
2023/09/20 10:07:10;;;;;;;0.25;0.25;;;;;;;20.32;52.90;97226.31;5073741;28;20068;-67
2023/09/20 10:09:39;;;;;;;0.63;0.63;;;;;;;20.36;53.21;97223.91;5072622;28;20074;-68
2023/09/20 10:12:10;;;;;;;0.45;0.45;;;;;;;20.40;52.34;97228.53;5072624;28;20040;-68
2023/09/20 10:14:39;;;;;;;0.35;0.35;;;;;;;20.47;52.43;97217.44;5071645;28;20040;-67
2023/09/20 10:17:08;;;;;;;0.30;0.30;;;;;;;20.48;51.77;97217.16;5071993;28;20483;-67
2023/09/20 10:19:38;;;;;;;0.40;0.40;;;;;;;20.49;51.84;97216.09;5071370;28;20040;-67
2023/09/20 10:22:09;;;;;;;0.30;0.30;;;;;;;20.62;51.47;97208.53;5071879;28;20037;-68
2023/09/20 10:24:45;;;;;;;0.20;0.20;;;;;;;20.64;50.95;97203.66;5053589;28;20041;-68
2023/09/20 10:27:17;;;;;;;0.30;0.30;;;;;;;20.84;51.06;97200.97;5072136;28;20047;-67
2023/09/20 10:29:59;;;;;;;0.32;0.32;;;;;;;21.08;50.81;97206.66;5071469;28;20040;-68
2023/09/20 10:32:32;;;;;;;0.40;0.40;;;;;;;21.26;49.78;97206.16;5071715;28;20101;-68
2023/09/20 10:35:19;;;;;;;0.40;0.40;;;;;;;21.32;49.59;97190.66;5071303;28;20128;-68
2023/09/20 10:38:25;;;;;;;0.65;0.65;;;;;;;21.35;48.99;97188.25;5071757;28;20090;-68
2023/09/20 10:41:00;;;;;;;0.25;0.25;;;;;;;21.36;49.13;97206.16;4968444;28;20078;-68
2023/09/20 10:43:48;;;;;;;0.40;0.40;;;;;;;21.44;49.53;97194.75;5066570;28;20049;-67
2023/09/20 10:46:19;;;;;;;0.30;0.30;;;;;;;21.59;48.55;97196.63;5075364;28;20113;-67
2023/09/20 10:48:50;;;;;;;0.22;0.22;;;;;;;21.68;47.66;97194.97;5075176;28;20090;-68
2023/09/20 10:51:40;;;;;;;1.00;1.00;;;;;;;22.16;46.48;97190.75;5071932;28;20048;-67
2023/09/20 10:54:18;;;;;;;0.40;0.40;;;;;;;22.43;45.95;97182.19;5069735;28;20044;-68
2023/09/20 10:56:55;;;;;;;0.20;0.20;;;;;;;22.65;44.85;97182.59;5071243;28;20036;-68
2023/09/20 10:59:26;;;;;;;0.50;0.50;;;;;;;22.72;45.01;97187.75;5071072;28;20567;-68
2023/09/20 11:01:56;;;;;;;0.08;0.08;;;;;;;23.02;44.65;97184.00;5071307;28;20392;-67
2023/09/20 11:04:24;;;;;;;0.25;0.25;;;;;;;22.96;44.03;97188.66;5071528;28;20044;-67
2023/09/20 11:06:53;;;;;;;0.22;0.22;;;;;;;23.30;43.68;97185.13;5063250;28;20055;-68
2023/09/20 11:09:23;;;;;;;0.22;0.22;;;;;;;23.32;43.05;97170.13;5071348;28;20032;-68
2023/09/20 11:11:51;;;;;;;0.20;0.20;;;;;;;23.29;42.67;97175.31;5065194;28;20096;-67
2023/09/20 11:14:20;;;;;;;0.20;0.20;;;;;;;23.18;43.24;97173.78;5066039;28;20052;-68
2023/09/20 11:16:51;;;;;;;0.40;0.40;;;;;;;23.16;43.35;97174.06;5062913;28;20044;-68
2023/09/20 11:19:19;;;;;;;0.20;0.20;;;;;;;23.47;43.13;97166.41;5073641;28;20090;-67
2023/09/20 11:21:47;;;;;;;0.00;0.00;;;;;;;23.60;42.37;97165.78;5067721;28;20669;-68
2023/09/20 11:24:16;;;;;;;0.20;0.20;;;;;;;23.77;42.84;97157.16;5070833;28;20052;-68
2023/09/20 11:26:47;;;;;;;0.00;0.00;;;;;;;23.41;42.41;97156.69;5070680;28;20466;-68
2023/09/20 11:29:16;;;;;;;0.20;0.20;;;;;;;23.71;42.58;97139.22;5071224;28;20040;-68
2023/09/20 11:31:46;;;;;;;0.30;0.30;;;;;;;23.94;41.53;97137.59;5070119;28;20066;-67
2023/09/20 11:34:17;;;;;;;0.20;0.20;;;;;;;23.75;41.60;97138.38;5070653;28;20045;-67
2023/09/20 11:36:46;;;;;;;0.00;0.00;;;;;;;23.82;41.49;97132.56;5070385;28;20542;-67
2023/09/20 11:39:15;;;;;;;0.40;0.40;;;;;;;23.90;42.14;97131.91;5070964;28;20123;-68
2023/09/20 11:41:44;;;;;;;0.15;0.15;;;;;;;23.78;42.11;97136.97;5070874;28;20082;-67
2023/09/20 11:44:12;;;;;;;0.00;0.00;;;;;;;23.84;42.02;97121.38;5065315;28;20485;-67
2023/09/20 11:46:40;;;;;;;0.20;0.20;;;;;;;23.95;42.39;97137.31;5070187;28;20048;-67
2023/09/20 11:49:08;;;;;;;0.20;0.20;;;;;;;24.21;42.17;97137.78;5056509;28;20037;-67
2023/09/20 11:51:37;;;;;;;0.30;0.30;;;;;;;24.46;41.46;97125.75;5063693;28;20056;-67
2023/09/20 11:54:06;;;;;;;0.20;0.20;;;;;;;24.32;41.22;97131.13;5069555;28;20402;-67
2023/09/20 11:56:35;;;;;;;0.30;0.30;;;;;;;24.44;41.44;97131.50;5067708;28;20127;-67
2023/09/20 11:59:09;;;;;;;0.00;0.00;;;;;;;24.76;40.68;97133.47;5070824;28;20458;-67
2023/09/20 12:01:40;;;;;;;0.25;0.25;;;;;;;24.78;41.04;97133.19;5070695;28;20051;-67
2023/09/20 12:04:08;;;;;;;0.30;0.30;;;;;;;24.70;40.34;97121.00;5070581;28;20040;-67
2023/09/20 12:06:38;;;;;;;0.20;0.20;;;;;;;24.65;40.36;97125.72;5070460;28;20037;-67
2023/09/20 12:09:06;;;;;;;0.15;0.15;;;;;;;24.47;40.99;97130.91;5072453;28;20041;-67
2023/09/20 12:11:35;;;;;;;0.20;0.20;;;;;;;24.33;41.67;97119.09;5071986;28;20051;-67
2023/09/20 12:14:03;;;;;;;0.20;0.20;;;;;;;24.56;41.69;97120.13;5072274;28;20040;-67
2023/09/20 12:16:31;;;;;;;0.13;0.13;;;;;;;24.82;40.47;97121.34;5071979;28;20045;-67
2023/09/20 12:18:59;;;;;;;0.15;0.15;;;;;;;24.84;39.96;97112.84;5073814;28;20040;-67
2023/09/20 12:21:27;;;;;;;0.20;0.20;;;;;;;24.74;40.16;97113.84;5074802;28;20044;-67
2023/09/20 12:23:55;;;;;;;0.38;0.38;;;;;;;24.44;39.99;97101.47;5071772;28;20119;-67
2023/09/20 12:26:24;;;;;;;0.20;0.20;;;;;;;24.17;40.21;97097.75;5070960;28;20068;-67